Time;durP1;ratioP1;P1;durP2;ratioP2;P2;SDS_P1;SDS_P2;PMS_P1;PMS_P2;Temp;Humidity;BMP_temperature;BMP_pressure;BME280_temperature;BME280_humidity;BME280_pressure;Samples;Min_cycle;Max_cycle;Signal;HPM_P1;HPM_P2
2024/01/29 00:02:03;;;;;;;2.00;0.63;;;3.00;99.90;;;;;;4900794;29;20056;-73
2024/01/29 00:04:32;;;;;;;2.25;0.82;;;3.00;99.90;;;;;;4899601;29;20490;-73
2024/01/29 00:06:59;;;;;;;1.50;0.70;;;3.00;99.90;;;;;;4900473;29;20060;-73
2024/01/29 00:09:26;;;;;;;2.25;0.88;;;3.00;99.90;;;;;;4899363;29;20044;-72
2024/01/29 00:11:53;;;;;;;1.63;0.63;;;3.00;99.90;;;;;;4884003;29;20056;-72
2024/01/29 00:14:21;;;;;;;1.90;0.60;;;3.00;99.90;;;;;;4898236;29;20040;-72
2024/01/29 00:16:48;;;;;;;1.33;0.55;;;3.00;99.90;;;;;;4884353;29;20047;-73
2024/01/29 00:19:15;;;;;;;1.75;0.50;;;3.00;99.90;;;;;;4883656;29;20414;-72
2024/01/29 00:21:42;;;;;;;1.38;0.55;;;2.90;99.90;;;;;;4899292;29;20059;-73
2024/01/29 00:24:10;;;;;;;1.33;0.50;;;2.90;99.90;;;;;;4899269;29;20068;-73
2024/01/29 00:26:40;;;;;;;1.00;0.50;;;2.90;99.90;;;;;;4900424;29;20492;-72
2024/01/29 00:29:07;;;;;;;1.55;0.50;;;2.90;99.90;;;;;;4898903;29;20554;-72
2024/01/29 00:31:34;;;;;;;1.85;0.60;;;2.80;99.90;;;;;;4899996;29;20048;-73
2024/01/29 00:34:01;;;;;;;1.85;0.50;;;2.80;99.90;;;;;;4898968;29;20041;-73
2024/01/29 00:36:28;;;;;;;1.55;0.47;;;2.80;99.90;;;;;;4883330;29;20041;-73
2024/01/29 00:38:55;;;;;;;1.10;0.45;;;2.70;99.90;;;;;;4864972;29;20060;-73
2024/01/29 00:41:22;;;;;;;1.90;0.57;;;2.70;99.90;;;;;;4883342;29;20049;-73
2024/01/29 00:43:49;;;;;;;0.95;0.50;;;2.70;99.90;;;;;;4883303;29;20045;-72
2024/01/29 00:46:16;;;;;;;0.93;0.35;;;2.70;99.90;;;;;;4883004;29;20583;-72
2024/01/29 00:48:43;;;;;;;1.07;0.50;;;2.70;99.90;;;;;;4898668;29;20100;-72
2024/01/29 00:51:10;;;;;;;0.97;0.40;;;2.60;99.90;;;;;;4898830;29;20043;-72
2024/01/29 00:53:37;;;;;;;1.50;0.38;;;2.60;99.90;;;;;;4899947;29;20049;-72
2024/01/29 00:56:07;;;;;;;2.40;0.50;;;2.50;99.90;;;;;;4898646;29;20077;-73
2024/01/29 00:58:34;;;;;;;2.25;0.52;;;2.50;99.90;;;;;;4899701;29;20064;-73
2024/01/29 01:01:01;;;;;;;1.88;0.47;;;2.40;99.90;;;;;;4882903;29;20052;-73
2024/01/29 01:03:29;;;;;;;1.40;0.50;;;2.40;99.90;;;;;;4867592;29;20108;-72
2024/01/29 01:05:56;;;;;;;1.98;0.73;;;2.40;99.90;;;;;;4898207;29;20516;-72
2024/01/29 01:08:23;;;;;;;0.70;0.40;;;2.30;99.90;;;;;;4898280;29;20401;-73
2024/01/29 01:10:50;;;;;;;1.38;0.60;;;2.30;99.90;;;;;;4898504;29;20450;-73
2024/01/29 01:13:17;;;;;;;1.23;0.50;;;2.30;99.90;;;;;;4898395;29;20055;-73
2024/01/29 01:15:47;;;;;;;1.10;0.40;;;2.30;99.90;;;;;;4882917;29;20045;-72
2024/01/29 01:18:14;;;;;;;1.05;0.50;;;2.30;99.90;;;;;;4899493;29;20051;-73
2024/01/29 01:20:43;;;;;;;1.30;0.50;;;2.20;99.90;;;;;;4899457;29;20044;-73
2024/01/29 01:23:10;;;;;;;1.10;0.45;;;2.20;99.90;;;;;;4882908;29;20056;-73
2024/01/29 01:25:37;;;;;;;1.23;0.50;;;2.20;99.90;;;;;;4880793;29;20143;-73
2024/01/29 01:28:06;;;;;;;1.50;0.50;;;2.20;99.90;;;;;;4882218;29;20124;-73
2024/01/29 01:30:33;;;;;;;1.20;0.40;;;2.10;99.90;;;;;;4882493;29;20052;-73
2024/01/29 01:33:00;;;;;;;1.20;0.35;;;2.10;99.90;;;;;;4882261;29;20148;-73
2024/01/29 01:35:27;;;;;;;0.80;0.33;;;2.10;99.90;;;;;;4882355;29;20044;-73
2024/01/29 01:37:54;;;;;;;1.35;0.60;;;2.10;99.90;;;;;;4897608;29;20123;-73
2024/01/29 01:40:21;;;;;;;1.80;0.70;;;2.10;99.90;;;;;;4882029;29;20067;-73
2024/01/29 01:42:48;;;;;;;1.83;0.50;;;2.00;99.90;;;;;;4897704;29;20056;-73
2024/01/29 01:45:15;;;;;;;1.05;0.47;;;2.00;99.90;;;;;;4879768;29;20408;-73
2024/01/29 01:47:43;;;;;;;2.08;0.70;;;2.00;99.90;;;;;;4891507;29;20045;-73
2024/01/29 01:50:10;;;;;;;0.95;0.32;;;2.00;99.90;;;;;;4897063;29;20048;-73
2024/01/29 01:52:39;;;;;;;1.40;0.70;;;2.00;99.90;;;;;;4898753;29;20506;-73
2024/01/29 01:55:07;;;;;;;1.00;0.35;;;2.00;99.90;;;;;;4882215;29;20045;-73
2024/01/29 01:57:42;;;;;;;1.92;0.50;;;2.00;99.90;;;;;;4898467;29;20040;-73
2024/01/29 02:00:11;;;;;;;1.73;0.40;;;1.90;99.90;;;;;;4891733;29;20529;-73
2024/01/29 02:02:40;;;;;;;2.60;0.47;;;1.90;99.90;;;;;;4900995;29;20450;-73
2024/01/29 02:05:08;;;;;;;2.23;0.40;;;1.90;99.90;;;;;;4898458;29;20458;-73
2024/01/29 02:07:35;;;;;;;1.35;0.40;;;1.90;99.90;;;;;;4881686;29;20044;-73
2024/01/29 02:10:02;;;;;;;0.90;0.50;;;1.90;99.90;;;;;;4891413;29;20120;-73
2024/01/29 02:12:29;;;;;;;1.03;0.50;;;1.90;99.90;;;;;;4861006;29;20048;-73
2024/01/29 02:14:56;;;;;;;1.10;0.47;;;1.90;99.90;;;;;;4898360;29;20517;-73
2024/01/29 02:17:24;;;;;;;0.93;0.33;;;1.90;99.90;;;;;;4896894;29;20450;-73
2024/01/29 02:19:51;;;;;;;1.42;0.50;;;1.80;99.90;;;;;;4896986;29;20099;-73
2024/01/29 02:22:19;;;;;;;1.27;0.63;;;1.80;99.90;;;;;;4897084;29;20546;-73
2024/01/29 02:24:46;;;;;;;1.70;0.50;;;1.80;99.90;;;;;;4898087;29;20127;-73
2024/01/29 02:27:13;;;;;;;1.38;0.40;;;1.80;99.90;;;;;;4897890;29;20135;-73
2024/01/29 02:29:40;;;;;;;1.75;0.43;;;1.80;99.90;;;;;;4881290;29;20053;-73
2024/01/29 02:32:07;;;;;;;1.37;0.57;;;1.80;99.90;;;;;;4897002;29;20041;-73
2024/01/29 02:34:34;;;;;;;1.20;0.60;;;1.80;99.90;;;;;;4896926;29;20040;-73
2024/01/29 02:37:01;;;;;;;1.57;0.50;;;1.80;99.90;;;;;;4878116;29;20045;-73
2024/01/29 02:39:28;;;;;;;1.47;0.50;;;1.80;99.90;;;;;;4879126;29;20056;-73
2024/01/29 02:41:55;;;;;;;1.37;0.50;;;1.70;99.90;;;;;;4881075;29;20068;-72
2024/01/29 02:44:22;;;;;;;1.83;0.60;;;1.70;99.90;;;;;;4880825;29;20053;-72
2024/01/29 02:46:49;;;;;;;1.57;0.43;;;1.70;99.90;;;;;;4881159;29;20060;-73
2024/01/29 02:49:17;;;;;;;0.63;0.40;;;1.70;99.90;;;;;;4896517;29;20044;-73
2024/01/29 02:51:44;;;;;;;1.63;0.53;;;1.70;99.90;;;;;;4881071;29;20048;-73
2024/01/29 02:54:11;;;;;;;1.67;0.50;;;1.70;99.90;;;;;;4881038;29;20055;-73
2024/01/29 02:56:38;;;;;;;1.98;0.60;;;1.70;99.90;;;;;;4897780;29;20079;-73
2024/01/29 02:59:07;;;;;;;1.20;0.53;;;1.60;99.90;;;;;;4896483;29;20524;-73
2024/01/29 03:01:34;;;;;;;1.20;0.60;;;1.60;99.90;;;;;;4897632;29;20115;-73
2024/01/29 03:04:02;;;;;;;1.80;0.70;;;1.60;99.90;;;;;;4896365;29;20047;-73
2024/01/29 03:06:29;;;;;;;2.23;0.87;;;1.60;99.90;;;;;;4896410;29;20064;-73
2024/01/29 03:08:56;;;;;;;1.23;0.40;;;1.60;99.90;;;;;;4896123;29;20048;-73
2024/01/29 03:11:23;;;;;;;1.73;0.60;;;1.60;99.90;;;;;;4895589;29;20036;-73
2024/01/29 03:13:50;;;;;;;1.43;0.50;;;1.50;99.90;;;;;;4896410;29;20056;-73
2024/01/29 03:16:17;;;;;;;1.53;0.50;;;1.50;99.90;;;;;;4880743;29;20135;-73
2024/01/29 03:18:44;;;;;;;1.27;0.50;;;1.50;99.90;;;;;;4896212;29;20045;-73
2024/01/29 03:21:13;;;;;;;1.30;0.50;;;1.50;99.90;;;;;;4896289;29;20139;-73
2024/01/29 03:23:39;;;;;;;2.33;0.57;;;1.50;99.90;;;;;;4865613;29;20052;-73
2024/01/29 03:26:06;;;;;;;1.53;0.63;;;1.50;99.90;;;;;;4896211;29;20048;-73
2024/01/29 03:28:33;;;;;;;2.07;0.53;;;1.50;99.90;;;;;;4880790;29;20052;-73
2024/01/29 03:31:00;;;;;;;1.07;0.53;;;1.50;99.90;;;;;;4874728;29;20077;-73
2024/01/29 03:33:30;;;;;;;1.63;0.50;;;1.50;99.90;;;;;;4887941;29;20104;-73
2024/01/29 03:35:57;;;;;;;1.90;0.57;;;1.50;99.90;;;;;;4890038;29;20051;-74
2024/01/29 03:38:24;;;;;;;1.23;0.53;;;1.50;99.90;;;;;;4894756;29;20049;-73
2024/01/29 03:40:51;;;;;;;1.37;0.73;;;1.50;99.90;;;;;;4896151;29;20049;-72
2024/01/29 03:43:19;;;;;;;1.50;0.60;;;1.40;99.90;;;;;;4880678;29;20052;-72
2024/01/29 03:45:50;;;;;;;1.23;0.50;;;1.40;99.90;;;;;;4897238;29;20485;-73
2024/01/29 03:48:17;;;;;;;1.40;0.53;;;1.40;99.90;;;;;;4877665;29;20383;-73
2024/01/29 03:50:44;;;;;;;1.30;0.50;;;1.40;99.90;;;;;;4897140;29;20071;-73
2024/01/29 03:53:11;;;;;;;1.87;0.80;;;1.40;99.90;;;;;;4880592;29;20049;-73
2024/01/29 03:55:38;;;;;;;1.30;0.60;;;1.40;99.90;;;;;;4862041;29;20096;-73
2024/01/29 03:58:06;;;;;;;1.27;0.67;;;1.40;99.90;;;;;;4896139;29;20123;-73
2024/01/29 04:00:33;;;;;;;1.40;0.47;;;1.40;99.90;;;;;;4895952;29;20046;-72
2024/01/29 04:03:03;;;;;;;2.67;0.73;;;1.40;99.90;;;;;;4895960;29;20052;-73
2024/01/29 04:05:30;;;;;;;2.30;0.87;;;1.30;99.90;;;;;;4897083;29;20088;-73
2024/01/29 04:08:04;;;;;;;3.47;0.63;;;1.30;99.90;;;;;;4880440;29;20418;-73
2024/01/29 04:10:32;;;;;;;1.60;0.70;;;1.30;99.90;;;;;;4897048;29;20457;-73
2024/01/29 04:12:59;;;;;;;1.20;0.57;;;1.30;99.90;;;;;;4895769;29;20055;-74
2024/01/29 04:15:26;;;;;;;1.63;0.90;;;1.30;99.90;;;;;;4895866;29;20135;-74
2024/01/29 04:17:53;;;;;;;1.33;0.57;;;1.30;99.90;;;;;;4894375;29;20104;-73
2024/01/29 04:20:21;;;;;;;1.83;0.60;;;1.30;99.90;;;;;;4895854;29;20120;-73
2024/01/29 04:22:47;;;;;;;1.80;0.90;;;1.30;99.90;;;;;;4883083;29;20466;-73
2024/01/29 04:25:15;;;;;;;2.33;0.87;;;1.30;99.90;;;;;;4900373;29;20486;-73
2024/01/29 04:27:42;;;;;;;2.07;0.50;;;1.30;99.90;;;;;;4883688;29;20045;-73
2024/01/29 04:30:09;;;;;;;1.63;0.63;;;1.30;99.90;;;;;;4898876;29;20059;-73
2024/01/29 04:32:36;;;;;;;1.60;0.60;;;1.30;99.90;;;;;;4900316;29;20434;-72
2024/01/29 04:35:04;;;;;;;1.07;0.43;;;1.30;99.90;;;;;;4899039;29;20040;-72
2024/01/29 04:37:31;;;;;;;1.10;0.50;;;1.30;99.90;;;;;;4899123;29;20052;-72
2024/01/29 04:39:58;;;;;;;1.73;0.50;;;1.30;99.90;;;;;;4883481;29;20510;-72
2024/01/29 04:42:25;;;;;;;1.73;0.60;;;1.30;99.90;;;;;;4883285;29;20052;-72
2024/01/29 04:44:52;;;;;;;2.30;0.70;;;1.30;99.90;;;;;;4899926;29;20049;-72
2024/01/29 04:47:19;;;;;;;2.00;0.97;;;1.30;99.90;;;;;;4898555;29;20059;-72
2024/01/29 04:49:46;;;;;;;1.33;0.50;;;1.30;99.90;;;;;;4898635;29;20048;-72
2024/01/29 04:52:13;;;;;;;1.07;0.47;;;1.30;99.90;;;;;;4899789;29;20048;-72
2024/01/29 04:54:40;;;;;;;1.47;0.57;;;1.30;99.90;;;;;;4883184;29;20108;-72
2024/01/29 04:57:07;;;;;;;2.53;0.97;;;1.30;99.90;;;;;;4898621;29;20490;-73
2024/01/29 04:59:34;;;;;;;1.83;0.50;;;1.20;99.90;;;;;;4898509;29;20101;-73
2024/01/29 05:02:01;;;;;;;1.60;0.60;;;1.20;99.90;;;;;;4882970;29;20063;-73
2024/01/29 05:04:28;;;;;;;1.37;0.43;;;1.20;99.90;;;;;;4898588;29;20079;-71
2024/01/29 05:06:55;;;;;;;1.30;0.50;;;1.20;99.90;;;;;;4898371;29;20147;-72
2024/01/29 05:09:23;;;;;;;1.50;0.60;;;1.20;99.90;;;;;;4892519;29;20101;-72
2024/01/29 05:11:50;;;;;;;1.33;0.60;;;1.20;99.90;;;;;;4882931;29;20538;-72
2024/01/29 05:14:17;;;;;;;1.53;0.60;;;1.10;99.90;;;;;;4898050;29;20363;-72
2024/01/29 05:16:45;;;;;;;1.23;0.57;;;1.10;99.90;;;;;;4898239;29;20045;-72
2024/01/29 05:19:12;;;;;;;2.00;0.50;;;1.10;99.90;;;;;;4897986;29;20550;-72
2024/01/29 05:21:39;;;;;;;1.50;0.60;;;1.10;99.90;;;;;;4882687;29;20059;-72
2024/01/29 05:24:06;;;;;;;2.23;0.70;;;1.10;99.90;;;;;;4882456;29;20461;-73
2024/01/29 05:26:33;;;;;;;1.17;0.40;;;1.10;99.90;;;;;;4898180;29;20040;-73
2024/01/29 05:29:00;;;;;;;2.23;0.90;;;1.10;99.90;;;;;;4898153;29;20073;-73
2024/01/29 05:31:27;;;;;;;1.97;0.70;;;1.10;99.90;;;;;;4897904;29;20569;-72
2024/01/29 05:33:54;;;;;;;2.00;0.70;;;1.00;99.90;;;;;;4896932;29;20036;-72
2024/01/29 05:36:21;;;;;;;1.27;0.57;;;1.00;99.90;;;;;;4879181;29;20052;-72
2024/01/29 05:38:48;;;;;;;1.77;0.60;;;1.00;99.90;;;;;;4877417;29;20068;-72
2024/01/29 05:41:15;;;;;;;1.63;0.70;;;1.00;99.90;;;;;;4877015;29;20462;-72
2024/01/29 05:43:45;;;;;;;1.80;0.60;;;1.00;99.90;;;;;;4896888;29;20141;-72
2024/01/29 05:46:12;;;;;;;1.47;0.60;;;1.00;99.90;;;;;;4897633;29;20116;-72
2024/01/29 05:48:39;;;;;;;1.67;0.60;;;1.00;99.90;;;;;;4881996;29;20051;-74
2024/01/29 05:51:06;;;;;;;2.23;0.60;;;1.00;99.90;;;;;;4882168;29;20045;-73
2024/01/29 05:53:33;;;;;;;1.13;0.57;;;1.00;99.90;;;;;;4882073;29;20055;-73
2024/01/29 05:56:04;;;;;;;0.90;0.50;;;1.00;99.90;;;;;;4897654;29;20518;-73
2024/01/29 05:58:34;;;;;;;2.17;0.70;;;1.00;99.90;;;;;;4882009;29;20119;-73
2024/01/29 06:01:01;;;;;;;1.37;0.53;;;1.00;99.90;;;;;;4897634;29;20569;-73
2024/01/29 06:03:28;;;;;;;1.53;0.60;;;1.10;99.90;;;;;;4881993;29;20053;-73
2024/01/29 06:05:55;;;;;;;2.40;0.67;;;1.10;99.90;;;;;;4881848;29;20053;-73
2024/01/29 06:08:22;;;;;;;1.63;0.70;;;1.10;99.90;;;;;;4897479;29;20079;-73
2024/01/29 06:10:50;;;;;;;1.77;0.80;;;1.20;99.90;;;;;;4881663;29;20041;-73
2024/01/29 06:13:18;;;;;;;1.97;0.70;;;1.10;99.90;;;;;;4897302;29;20049;-73
2024/01/29 06:15:45;;;;;;;1.73;0.80;;;1.20;99.90;;;;;;4881794;29;20045;-72
2024/01/29 06:18:12;;;;;;;1.37;0.60;;;1.20;99.90;;;;;;4897068;29;20087;-72
2024/01/29 06:20:39;;;;;;;1.57;0.70;;;1.20;99.90;;;;;;4897205;29;20084;-73
2024/01/29 06:23:09;;;;;;;1.90;0.70;;;1.20;99.90;;;;;;4898242;29;20041;-72
2024/01/29 06:25:36;;;;;;;1.40;0.60;;;1.30;99.90;;;;;;4897178;29;20072;-72
2024/01/29 06:28:05;;;;;;;1.80;0.60;;;1.30;99.90;;;;;;4898125;29;20108;-72
2024/01/29 06:30:33;;;;;;;1.93;0.70;;;1.30;99.90;;;;;;4881681;29;20044;-72
2024/01/29 06:33:00;;;;;;;2.20;0.53;;;1.30;99.90;;;;;;4896898;29;20064;-72
2024/01/29 06:35:27;;;;;;;1.27;0.50;;;1.30;99.90;;;;;;4881504;29;20060;-72
2024/01/29 06:37:54;;;;;;;1.53;0.50;;;1.40;99.90;;;;;;4896792;29;20049;-72
2024/01/29 06:40:27;;;;;;;3.13;0.60;;;1.40;99.90;;;;;;4881251;29;20055;-72
2024/01/29 06:42:57;;;;;;;1.40;0.40;;;1.40;99.90;;;;;;4897952;29;20048;-72
2024/01/29 06:45:24;;;;;;;1.50;0.50;;;1.40;99.90;;;;;;4896076;29;20072;-72
2024/01/29 06:47:52;;;;;;;1.97;0.60;;;1.40;99.90;;;;;;4879153;29;20123;-73
2024/01/29 06:50:19;;;;;;;1.67;0.50;;;1.40;99.90;;;;;;4896290;29;20044;-72
2024/01/29 06:52:47;;;;;;;1.70;0.60;;;1.40;99.90;;;;;;4896544;29;20067;-72
2024/01/29 06:55:14;;;;;;;1.50;0.40;;;1.40;99.90;;;;;;4897679;29;20168;-73
2024/01/29 06:57:41;;;;;;;1.00;0.53;;;1.40;99.90;;;;;;4878566;29;20065;-72
2024/01/29 07:00:10;;;;;;;1.53;0.60;;;1.40;99.90;;;;;;4896602;29;20045;-72
2024/01/29 07:02:37;;;;;;;2.03;0.50;;;1.40;99.90;;;;;;4892054;29;20055;-72
2024/01/29 07:05:04;;;;;;;1.73;0.60;;;1.40;99.90;;;;;;4896092;29;20112;-73
2024/01/29 07:07:31;;;;;;;1.60;0.60;;;1.40;99.90;;;;;;4907838;29;20107;-72
2024/01/29 07:09:59;;;;;;;2.83;0.60;;;1.40;99.90;;;;;;4880342;29;20055;-73
2024/01/29 07:12:26;;;;;;;1.67;0.80;;;1.50;99.90;;;;;;4880183;29;20135;-72
2024/01/29 07:14:55;;;;;;;2.67;0.80;;;1.50;99.90;;;;;;4880289;29;20513;-72
2024/01/29 07:17:23;;;;;;;2.03;0.77;;;1.50;99.90;;;;;;4880212;29;20040;-73
2024/01/29 07:19:52;;;;;;;2.07;0.83;;;1.50;99.90;;;;;;4880086;29;20454;-73
2024/01/29 07:22:19;;;;;;;2.10;0.80;;;1.60;99.90;;;;;;4895481;29;20509;-72
2024/01/29 07:24:48;;;;;;;2.73;1.00;;;1.60;99.90;;;;;;4880133;29;20485;-72
2024/01/29 07:27:16;;;;;;;2.83;1.27;;;1.60;99.90;;;;;;4896539;29;20056;-72
2024/01/29 07:29:44;;;;;;;2.50;0.80;;;1.60;99.90;;;;;;4895398;29;20498;-72
2024/01/29 07:32:11;;;;;;;2.07;1.03;;;1.60;99.90;;;;;;4895342;29;20041;-72
2024/01/29 07:34:38;;;;;;;2.37;0.90;;;1.60;99.90;;;;;;4895328;29;20407;-73
2024/01/29 07:37:05;;;;;;;2.23;0.97;;;1.70;99.90;;;;;;4895201;29;20083;-72
2024/01/29 07:39:32;;;;;;;1.73;0.83;;;1.70;99.90;;;;;;4879770;29;20040;-72
2024/01/29 07:41:59;;;;;;;2.13;0.80;;;1.70;99.90;;;;;;4879691;29;20051;-73
2024/01/29 07:44:28;;;;;;;1.80;0.70;;;1.80;99.90;;;;;;4896259;29;20048;-73
2024/01/29 07:46:55;;;;;;;1.97;0.80;;;1.80;99.90;;;;;;4864113;29;20116;-72
2024/01/29 07:49:23;;;;;;;1.87;0.70;;;1.80;99.90;;;;;;4872535;29;20052;-73
2024/01/29 07:51:51;;;;;;;2.60;0.87;;;1.80;99.90;;;;;;4879499;29;20076;-73
2024/01/29 07:54:18;;;;;;;1.73;0.80;;;1.90;99.90;;;;;;4894810;29;20520;-73
2024/01/29 07:56:45;;;;;;;1.87;0.70;;;1.90;99.90;;;;;;4880840;29;20048;-72
2024/01/29 07:59:12;;;;;;;2.70;1.07;;;1.90;99.90;;;;;;4895664;29;20040;-73
2024/01/29 08:01:39;;;;;;;2.70;0.90;;;2.00;99.90;;;;;;4898363;29;20052;-73
2024/01/29 08:04:07;;;;;;;1.60;0.80;;;2.00;99.90;;;;;;4882800;29;20123;-73
2024/01/29 08:06:34;;;;;;;2.63;0.90;;;2.10;99.90;;;;;;4861471;29;1151439;-73
2024/01/29 08:09:04;;;;;;;2.00;0.70;;;2.10;99.90;;;;;;4883685;29;20048;-73
2024/01/29 08:11:32;;;;;;;1.83;0.70;;;2.10;99.90;;;;;;4883771;29;20049;-73
2024/01/29 08:13:59;;;;;;;2.77;1.47;;;2.20;99.90;;;;;;4899292;29;20044;-73
2024/01/29 08:16:26;;;;;;;1.67;0.70;;;2.20;99.90;;;;;;4883923;29;20044;-73
2024/01/29 08:18:55;;;;;;;2.27;1.23;;;2.30;99.90;;;;;;4900418;29;20446;-73
2024/01/29 08:21:23;;;;;;;2.50;0.90;;;2.30;99.90;;;;;;4900582;29;20044;-73
2024/01/29 08:23:50;;;;;;;1.83;0.73;;;2.40;99.90;;;;;;4882681;29;20509;-73
2024/01/29 08:26:17;;;;;;;1.80;1.00;;;2.40;99.90;;;;;;4898868;29;20048;-73
2024/01/29 08:28:44;;;;;;;2.20;0.90;;;2.50;99.90;;;;;;4899219;29;20687;-73
2024/01/29 08:31:11;;;;;;;1.80;0.80;;;2.60;99.90;;;;;;4899057;29;20037;-73
2024/01/29 08:33:42;;;;;;;2.53;0.97;;;2.60;99.90;;;;;;4898922;29;20114;-73
2024/01/29 08:36:09;;;;;;;2.73;0.87;;;2.70;99.90;;;;;;4900088;29;20044;-73
2024/01/29 08:38:36;;;;;;;1.97;0.73;;;2.80;99.90;;;;;;4881557;29;20045;-72
2024/01/29 08:41:03;;;;;;;1.40;0.70;;;2.90;99.90;;;;;;4898900;29;20072;-73
2024/01/29 08:43:30;;;;;;;3.35;0.90;;;3.00;99.90;;;;;;4898681;29;20052;-72
2024/01/29 08:45:57;;;;;;;1.70;0.80;;;3.10;99.90;;;;;;4883171;29;20403;-73
2024/01/29 08:48:24;;;;;;;3.13;1.43;;;3.20;99.90;;;;;;4867679;29;20066;-72
2024/01/29 08:50:51;;;;;;;1.73;0.70;;;3.30;99.90;;;;;;4880215;29;20037;-73
2024/01/29 08:53:18;;;;;;;2.47;0.80;;;3.40;99.90;;;;;;4898933;29;20052;-73
2024/01/29 08:55:45;;;;;;;2.15;0.80;;;3.50;99.90;;;;;;4898550;29;20041;-74
2024/01/29 08:58:13;;;;;;;1.43;0.60;;;3.60;99.90;;;;;;4883427;29;20054;-74
2024/01/29 09:00:41;;;;;;;2.03;0.88;;;3.60;99.90;;;;;;4883031;29;20041;-73
2024/01/29 09:03:09;;;;;;;2.15;0.80;;;3.70;99.90;;;;;;4883125;29;20049;-73
2024/01/29 09:05:38;;;;;;;1.77;0.77;;;3.80;99.90;;;;;;4883137;29;20506;-73
2024/01/29 09:08:06;;;;;;;13.88;4.82;;;3.90;99.90;;;;;;4883060;29;20044;-73
2024/01/29 09:10:44;;;;;;;14.13;5.28;;;4.00;99.90;;;;;;4884338;29;20066;-72
2024/01/29 09:13:13;;;;;;;8.85;3.95;;;4.10;99.90;;;;;;4899556;29;20175;-74
2024/01/29 09:15:40;;;;;;;10.97;4.10;;;4.30;99.90;;;;;;4882756;29;20131;-73
2024/01/29 09:18:07;;;;;;;9.38;3.90;;;4.40;99.90;;;;;;4882538;29;20052;-73
2024/01/29 09:20:35;;;;;;;9.70;4.05;;;4.60;99.90;;;;;;4882789;29;20052;-73
2024/01/29 09:23:02;;;;;;;6.53;3.08;;;4.70;99.90;;;;;;4892037;29;20546;-72
2024/01/29 09:25:29;;;;;;;6.85;2.60;;;4.70;99.90;;;;;;4899135;29;20501;-73
2024/01/29 09:27:56;;;;;;;7.00;3.35;;;4.80;99.90;;;;;;4882323;29;20097;-73
2024/01/29 09:30:24;;;;;;;4.82;2.22;;;4.80;99.90;;;;;;4882430;29;20100;-72
2024/01/29 09:32:51;;;;;;;5.13;2.40;;;4.80;99.90;;;;;;4897807;29;20043;-74
2024/01/29 09:35:25;;;;;;;3.88;1.92;;;4.90;99.90;;;;;;4885594;29;20039;-74
2024/01/29 09:37:52;;;;;;;4.43;1.90;;;4.90;99.90;;;;;;4876151;29;20466;-73
2024/01/29 09:40:20;;;;;;;3.80;1.55;;;5.00;99.90;;;;;;4882289;29;20154;-73
2024/01/29 09:42:52;;;;;;;3.60;1.73;;;5.00;99.90;;;;;;4882420;29;20058;-74
2024/01/29 09:45:24;;;;;;;4.60;1.83;;;5.10;99.90;;;;;;4897663;29;20506;-74
2024/01/29 09:47:56;;;;;;;3.67;1.58;;;5.10;99.90;;;;;;4888947;29;20156;-74
2024/01/29 09:50:24;;;;;;;;;;;5.10;99.90;;;;;;4897987;29;20048;-74
2024/01/29 09:52:55;;;;;;;5.22;2.67;;;5.10;99.90;;;;;;4897489;29;19927;-74
2024/01/29 09:55:26;;;;;;;5.47;2.70;;;5.30;99.90;;;;;;4897482;29;20131;-74
2024/01/29 09:57:54;;;;;;;7.05;3.50;;;5.40;99.90;;;;;;4882078;29;20051;-74
2024/01/29 10:00:21;;;;;;;6.68;3.83;;;5.50;99.90;;;;;;4880561;29;20478;-74
2024/01/29 10:02:50;;;;;;;6.25;3.45;;;5.60;99.90;;;;;;4898634;29;20371;-74
2024/01/29 10:05:18;;;;;;;6.03;4.20;;;5.70;99.90;;;;;;4897286;29;20052;-74
2024/01/29 10:07:47;;;;;;;5.32;3.47;;;5.80;99.90;;;;;;4897556;29;20493;-79
2024/01/29 10:10:14;;;;;;;4.50;2.35;;;5.90;99.90;;;;;;4897544;29;20131;-78
2024/01/29 10:12:41;;;;;;;4.05;2.25;;;5.90;99.90;;;;;;4866521;29;20133;-76
2024/01/29 10:15:09;;;;;;;6.75;4.07;;;5.90;99.90;;;;;;4866536;29;20055;-76
2024/01/29 10:17:36;;;;;;;5.35;3.28;;;6.00;99.90;;;;;;4881991;29;20043;-77
2024/01/29 10:20:04;;;;;;;4.70;3.47;;;6.00;99.90;;;;;;4881338;29;20059;-77
2024/01/29 10:22:31;;;;;;;4.80;3.08;;;6.00;99.90;;;;;;4893632;29;20048;-76
2024/01/29 10:25:03;;;;;;;5.10;2.92;;;6.10;99.90;;;;;;4871007;29;20041;-76
2024/01/29 10:27:31;;;;;;;7.78;3.65;;;6.10;99.90;;;;;;4893827;29;20489;-76
2024/01/29 10:29:58;;;;;;;7.45;4.15;;;6.10;99.90;;;;;;4898341;29;20127;-76
2024/01/29 10:32:26;;;;;;;6.53;3.92;;;6.20;99.90;;;;;;4878827;29;20049;-78
2024/01/29 10:34:53;;;;;;;7.03;4.32;;;6.30;99.90;;;;;;4893044;29;20060;-76
2024/01/29 10:37:21;;;;;;;6.32;4.25;;;6.30;99.90;;;;;;4862775;29;20500;-75
2024/01/29 10:39:48;;;;;;;6.97;4.32;;;6.30;99.90;;;;;;4892829;29;20044;-76
2024/01/29 10:42:28;;;;;;;5.82;3.72;;;6.40;99.90;;;;;;4877196;29;20131;-76
2024/01/29 10:45:03;;;;;;;6.28;3.75;;;6.40;99.90;;;;;;4898030;29;20076;-75
2024/01/29 10:47:35;;;;;;;5.25;3.17;;;6.40;99.90;;;;;;4897844;29;20408;-75
2024/01/29 10:50:03;;;;;;;6.20;3.35;;;6.40;99.90;;;;;;4881127;29;20058;-76
2024/01/29 10:52:30;;;;;;;5.93;3.15;;;6.40;99.90;;;;;;4881486;29;20103;-76
2024/01/29 10:54:58;;;;;;;5.53;3.28;;;6.40;99.90;;;;;;4896884;29;20041;-76
2024/01/29 10:57:28;;;;;;;4.70;2.90;;;6.30;99.90;;;;;;4881586;29;20044;-75
2024/01/29 10:59:56;;;;;;;6.57;3.53;;;6.40;99.90;;;;;;4897742;29;20493;-76
2024/01/29 11:02:24;;;;;;;5.95;3.42;;;6.40;99.90;;;;;;4897194;29;20454;-76
2024/01/29 11:04:51;;;;;;;4.78;2.97;;;6.50;99.90;;;;;;4865902;29;20055;-78
2024/01/29 11:07:25;;;;;;;6.70;3.72;;;6.50;99.90;;;;;;4881363;29;20052;-81
2024/01/29 11:10:23;;;;;;;5.97;3.33;;;6.60;99.90;;;;;;4897233;29;20510;-83
2024/01/29 11:12:53;;;;;;;5.65;3.90;;;6.70;99.90;;;;;;4885206;29;20040;-82
2024/01/29 11:15:20;;;;;;;7.10;4.05;;;6.70;99.90;;;;;;4878100;29;20136;-81
2024/01/29 11:17:48;;;;;;;7.18;3.88;;;6.80;99.90;;;;;;4883076;29;20040;-81
2024/01/29 11:20:17;;;;;;;7.72;4.05;;;6.80;99.90;;;;;;4878189;29;20092;-82
2024/01/29 11:22:59;;;;;;;5.90;3.60;;;6.90;99.90;;;;;;4881753;29;20059;-81
2024/01/29 11:25:29;;;;;;;5.90;3.67;;;6.90;99.90;;;;;;4896728;29;20515;-81
2024/01/29 11:27:56;;;;;;;8.57;5.18;;;6.90;99.90;;;;;;4896318;29;20044;-81
2024/01/29 11:30:26;;;;;;;7.15;4.90;;;7.00;99.90;;;;;;4896366;29;20052;-81
2024/01/29 11:32:55;;;;;;;7.97;4.80;;;7.10;99.90;;;;;;4884213;29;20049;-80
2024/01/29 11:35:26;;;;;;;7.55;4.78;;;7.20;99.90;;;;;;4874151;29;20037;-82
2024/01/29 11:38:13;;;;;;;7.13;5.00;;;7.30;99.90;;;;;;4887069;29;20092;-81
2024/01/29 11:40:41;;;;;;;8.98;5.40;;;7.40;99.90;;;;;;4881882;29;20762;-80
2024/01/29 11:43:18;;;;;;;8.00;5.22;;;7.50;99.90;;;;;;4866749;29;20051;-82
2024/01/29 11:45:50;;;;;;;8.57;4.63;;;7.60;99.90;;;;;;4886236;29;20060;-84
2024/01/29 11:48:20;;;;;;;8.27;4.68;;;7.60;99.90;;;;;;4900413;29;20100;-77
2024/01/29 11:50:51;;;;;;;7.55;4.38;;;7.60;99.90;;;;;;4900053;29;20044;-77
2024/01/29 11:53:20;;;;;;;8.35;5.50;;;7.60;99.90;;;;;;4901196;29;20044;-83
2024/01/29 11:55:50;;;;;;;8.93;6.05;;;7.70;99.90;;;;;;4887472;29;20049;-82
2024/01/29 11:58:22;;;;;;;7.95;5.75;;;7.80;99.90;;;;;;4881291;29;20045;-83
2024/01/29 12:00:53;;;;;;;11.15;7.43;;;7.90;99.90;;;;;;4865954;29;20156;-82
2024/01/29 12:03:31;;;;;;;10.70;7.65;;;8.00;99.90;;;;;;4892042;29;20482;-81
2024/01/29 12:05:59;;;;;;;9.50;7.03;;;8.10;99.90;;;;;;4885224;29;20413;-82
2024/01/29 12:08:27;;;;;;;8.35;5.30;;;8.10;99.90;;;;;;4881232;29;20051;-82
2024/01/29 12:11:03;;;;;;;7.60;5.20;;;8.20;99.90;;;;;;4894866;29;20056;-83
2024/01/29 12:13:31;;;;;;;8.27;4.70;;;8.20;99.90;;;;;;4881074;29;20037;-83
2024/01/29 12:16:00;;;;;;;8.93;4.80;;;8.20;99.90;;;;;;4889867;29;20040;-83
2024/01/29 12:18:29;;;;;;;8.55;4.60;;;8.20;99.90;;;;;;4869852;29;20421;-82
2024/01/29 12:20:56;;;;;;;6.80;4.20;;;8.20;99.90;;;;;;4884875;29;20044;-83
2024/01/29 12:23:24;;;;;;;7.43;3.85;;;8.20;99.90;;;;;;4900397;29;20132;-82
2024/01/29 12:25:53;;;;;;;5.45;3.40;;;8.20;99.90;;;;;;4899725;29;20048;-82
2024/01/29 12:28:23;;;;;;;5.88;3.25;;;8.20;99.90;;;;;;4899875;29;20052;-81
2024/01/29 12:30:55;;;;;;;6.60;3.28;;;8.20;99.90;;;;;;4899711;29;20052;-80
2024/01/29 12:33:30;;;;;;;7.95;4.18;;;8.20;99.90;;;;;;4899223;29;20055;-79
2024/01/29 12:36:16;;;;;;;6.03;4.03;;;8.30;99.90;;;;;;4884547;29;20048;-79
2024/01/29 12:38:54;;;;;;;6.57;3.90;;;8.40;99.90;;;;;;4899198;29;20079;-79
2024/01/29 12:41:24;;;;;;;5.88;3.33;;;8.40;99.90;;;;;;4899217;29;20131;-80
2024/01/29 12:43:51;;;;;;;5.97;3.00;;;8.40;99.90;;;;;;4898666;29;20053;-80
2024/01/29 12:46:19;;;;;;;4.93;2.50;;;8.40;99.90;;;;;;4900378;29;20462;-80
2024/01/29 12:48:46;;;;;;;4.35;2.20;;;8.40;99.90;;;;;;4882201;29;20088;-80
2024/01/29 12:51:14;;;;;;;6.75;4.13;;;8.30;99.90;;;;;;4889957;29;20604;-79
2024/01/29 12:53:54;;;;;;;7.05;4.18;;;8.40;99.90;;;;;;4899947;29;20481;-79
2024/01/29 12:56:22;;;;;;;6.07;3.63;;;8.50;99.90;;;;;;4898746;29;20414;-79
2024/01/29 12:58:49;;;;;;;8.05;5.13;;;8.50;99.90;;;;;;4882766;29;20048;-77
2024/01/29 13:01:16;;;;;;;8.65;4.85;;;8.50;99.90;;;;;;4880167;29;20133;-77
2024/01/29 13:03:43;;;;;;;7.95;5.03;;;8.60;99.90;;;;;;4880324;29;20506;-82